Welcome to Northern Hawkes Bay. New Zealand.
PWS Header
      nz Flag



Hit Counter


W3C Valid W3C Valid logo


    Wairoa

Select any of the Stations below to visit their websites.










Historic Data from Weather Underground
Select the location of interest below. Wairoa is the default. Please have patience, this Data is slow to load in.
Northern Hawkes Bay Historical Data
Daily Summary for November 15, 2017 Units:  Metric    English   Both
« Previous Day
Next Day »
Daily Weekly Monthly Yearly Custom
  High: Low: Average:
Temperature: 23.0 °C 11.3 °C 16.3 °C
Dew Point: 13.3 °C 9.1 °C 10.7 °C
Humidity: 93% 51% 71%
Wind Speed: 13.4km/h 0.0km/h 3.4km/h
Wind Gust: 24.5km/h - -
Wind- - SSE
Pressure: 1026.6 hPa 1019.2 hPa -
Precipitation: 4.3 mm    
Historical Graphs
 
 
Tabular Data for November 15, 2017
Time Temperature Dew Point Pressure Wind Wind Speed Wind Gust Humidity Rainfall Rate (Hourly) solar
00:02 18.5 °C 10.3 °C 1024.3 hPa ESE 13.4 km/h 20.9 km/h 59% 0.0 mm 220 W/m2
00:07 18.7 °C 10.6 °C 1024.3 hPa ESE 9.7 km/h 20.9 km/h 59% 0.0 mm 213 W/m2
00:12 18.7 °C 10.3 °C 1024.3 hPa ESE 8.7 km/h 20.9 km/h 58% 0.0 mm 210 W/m2
00:17 18.4 °C 10.0 °C 1024.3 hPa ESE 7.2 km/h 21.9 km/h 58% 0.0 mm 200 W/m2
00:22 18.7 °C 10.6 °C 1024.3 hPa SE 6.1 km/h 21.9 km/h 59% 0.0 mm 199 W/m2
00:27 18.6 °C 10.4 °C 1024.3 hPa SE 8.7 km/h 13.4 km/h 59% 0.0 mm 196 W/m2
00:32 18.0 °C 10.1 °C 1024.3 hPa ESE 11.1 km/h 17.2 km/h 60% 0.0 mm 101 W/m2
00:37 17.6 °C 10.2 °C 1024.3 hPa East 7.2 km/h 17.2 km/h 62% 0.0 mm 93 W/m2
00:42 17.3 °C 10.2 °C 1024.3 hPa ESE 6.1 km/h 17.2 km/h 63% 0.0 mm 86 W/m2
00:47 17.1 °C 10.0 °C 1024.6 hPa ESE 6.1 km/h 13.4 km/h 63% 0.0 mm 70 W/m2
00:52 16.9 °C 10.3 °C 1024.3 hPa ESE 5.0 km/h 13.4 km/h 65% 0.0 mm 71 W/m2
00:57 16.9 °C 10.3 °C 1024.6 hPa East 8.7 km/h 13.4 km/h 65% 0.0 mm 65 W/m2
01:02 16.7 °C 10.1 °C 1024.6 hPa East 5.0 km/h 13.4 km/h 65% 0.0 mm 51 W/m2
01:07 16.7 °C 10.1 °C 1024.6 hPa East 7.2 km/h 13.4 km/h 65% 0.0 mm 38 W/m2
01:12 16.6 °C 10.0 °C 1024.9 hPa ENE 8.7 km/h 13.4 km/h 65% 0.0 mm 39 W/m2
01:17 16.5 °C 9.9 °C 1024.6 hPa ENE 6.1 km/h 14.8 km/h 65% 0.0 mm 31 W/m2
01:22 16.4 °C 9.8 °C 1024.6 hPa East 7.2 km/h 15.8 km/h 65% 0.0 mm 23 W/m2
01:27 16.3 °C 9.7 °C 1024.9 hPa East 7.2 km/h 17.2 km/h 65% 0.0 mm 13 W/m2
01:32 16.2 °C 9.8 °C 1024.9 hPa East 5.0 km/h 17.2 km/h 66% 0.0 mm 9 W/m2
01:37 16.1 °C 9.8 °C 1024.9 hPa East 6.1 km/h 11.1 km/h 66% 0.0 mm 7 W/m2
01:42 16.0 °C 9.9 °C 1024.9 hPa East 7.2 km/h 14.8 km/h 67% 0.0 mm 5 W/m2
01:47 15.9 °C 10.2 °C 1024.9 hPa East 9.7 km/h 14.8 km/h 69% 0.0 mm 3 W/m2
01:52 15.8 °C 10.1 °C 1024.9 hPa ESE 5.0 km/h 14.8 km/h 69% 0.0 mm 0 W/m2
01:57 15.8 °C 10.1 °C 1024.9 hPa East 5.0 km/h 12.2 km/h 69% 0.0 mm 0 W/m2
02:02 15.8 °C 10.1 °C 1024.9 hPa East 9.7 km/h 12.2 km/h 69% 0.0 mm 0 W/m2
02:07 15.7 °C 10.3 °C 1024.9 hPa ESE 6.1 km/h 12.2 km/h 70% 0.0 mm 0 W/m2
02:12 15.7 °C 10.3 °C 1024.9 hPa East 2.6 km/h 12.2 km/h 70% 0.0 mm 0 W/m2
02:17 15.7 °C 10.3 °C 1024.9 hPa Calm   11.1 km/h 70% 0.0 mm 0 W/m2
02:22 15.6 °C 10.4 °C 1025.3 hPa SE 1.1 km/h 7.2 km/h 71% 0.0 mm 0 W/m2
02:27 15.6 °C 10.4 °C 1025.3 hPa East 1.1 km/h 5.0 km/h 71% 0.0 mm 0 W/m2
02:32 15.6 °C 10.4 °C 1025.3 hPa Calm   5.0 km/h 71% 0.0 mm 0 W/m2
02:37 15.5 °C 10.3 °C 1025.6 hPa Calm   3.5 km/h 71% 0.0 mm 0 W/m2
02:42 15.5 °C 10.5 °C 1025.6 hPa Calm   3.5 km/h 72% 0.0 mm 0 W/m2
02:47 15.4 °C 10.6 °C 1025.6 hPa ENE 2.6 km/h 6.1 km/h 73% 0.0 mm 0 W/m2
02:52 15.3 °C 10.5 °C 1025.3 hPa ENE 3.5 km/h 7.2 km/h 73% 0.0 mm 0 W/m2
02:57 15.2 °C 10.4 °C 1025.6 hPa ENE 2.6 km/h 8.7 km/h 73% 0.0 mm 0 W/m2
03:02 15.1 °C 10.3 °C 1025.6 hPa NE 1.1 km/h 8.7 km/h 73% 0.0 mm 0 W/m2
03:07 15.1 °C 10.3 °C 1026.0 hPa Calm   6.1 km/h 73% 0.0 mm 0 W/m2
03:12 15.1 °C 10.1 °C 1025.6 hPa ENE 2.6 km/h 7.2 km/h 72% 0.0 mm 0 W/m2
03:17 15.1 °C 10.3 °C 1026.0 hPa ENE 3.5 km/h 7.2 km/h 73% 0.0 mm 0 W/m2
03:22 15.0 °C 10.0 °C 1026.0 hPa ENE 1.1 km/h 7.2 km/h 72% 0.0 mm 0 W/m2
03:27 14.9 °C 10.3 °C 1026.0 hPa ENE 7.2 km/h 12.2 km/h 74% 0.0 mm 0 W/m2
03:32 14.8 °C 10.2 °C 1026.0 hPa ENE 3.5 km/h 12.2 km/h 74% 0.0 mm 0 W/m2
03:37 14.7 °C 10.1 °C 1026.0 hPa ENE 3.5 km/h 7.2 km/h 74% 0.0 mm 0 W/m2
03:42 14.6 °C 10.2 °C 1026.0 hPa ENE 5.0 km/h 8.7 km/h 75% 0.0 mm 0 W/m2
03:47 14.5 °C 9.9 °C 1026.0 hPa NE 2.6 km/h 9.7 km/h 74% 0.0 mm 0 W/m2
03:52 14.4 °C 9.8 °C 1026.0 hPa NE 2.6 km/h 9.7 km/h 74% 0.0 mm 0 W/m2
03:57 14.4 °C 9.8 °C 1026.0 hPa Calm   5.0 km/h 74% 0.0 mm 0 W/m2
04:02 14.4 °C 9.8 °C 1026.0 hPa Calm   5.0 km/h 74% 0.0 mm 0 W/m2
04:07 14.3 °C 9.7 °C 1026.3 hPa Calm   3.5 km/h 74% 0.0 mm 0 W/m2
04:12 14.4 °C 9.6 °C 1026.3 hPa Calm   3.5 km/h 73% 0.0 mm 0 W/m2
04:18 14.4 °C 9.4 °C 1026.0 hPa Calm   5.0 km/h 72% 0.0 mm 0 W/m2
04:23 14.5 °C 9.5 °C 1026.0 hPa Calm   9.7 km/h 72% 0.0 mm 0 W/m2
04:40 14.5 °C 9.3 °C 1026.0 hPa Calm   12.2 km/h 71% 0.0 mm 0 W/m2
04:45 14.4 °C 9.2 °C 1026.6 hPa Calm   12.2 km/h 71% 0.0 mm 0 W/m2
04:50 14.3 °C 9.3 °C 1026.0 hPa Calm   5.0 km/h 72% 0.0 mm 0 W/m2
04:55 14.2 °C 9.2 °C 1026.3 hPa Calm   5.0 km/h 72% 0.0 mm 0 W/m2
05:00 14.1 °C 9.1 °C 1026.3 hPa Calm   3.5 km/h 72% 0.0 mm 0 W/m2
05:06 14.1 °C 9.3 °C 1026.0 hPa Calm   3.5 km/h 73% 0.0 mm 0 W/m2
05:11 14.0 °C 9.2 °C 1026.3 hPa Calm   3.5 km/h 73% 0.0 mm 0 W/m2
05:16 14.0 °C 9.2 °C 1026.0 hPa Calm   2.6 km/h 73% 0.0 mm 0 W/m2
05:21 14.0 °C 9.2 °C 1026.0 hPa Calm   1.1 km/h 73% 0.0 mm 0 W/m2
05:26 14.0 °C 9.4 °C 1026.3 hPa Calm   1.1 km/h 74% 0.0 mm 0 W/m2
05:31 14.0 °C 9.4 °C 1026.3 hPa Calm   1.1 km/h 74% 0.0 mm 0 W/m2
05:36 14.0 °C 9.4 °C 1026.0 hPa Calm   1.1 km/h 74% 0.0 mm 0 W/m2
05:41 13.9 °C 9.6 °C 1026.0 hPa Calm     75% 0.0 mm 0 W/m2
05:46 13.9 °C 9.6 °C 1026.0 hPa Calm     75% 0.0 mm 0 W/m2
05:51 13.8 °C 9.4 °C 1026.0 hPa Calm     75% 0.0 mm 0 W/m2
05:56 13.8 °C 9.4 °C 1026.0 hPa Calm     75% 0.0 mm 0 W/m2
06:01 13.6 °C 9.3 °C 1026.0 hPa Calm   1.1 km/h 75% 0.0 mm 0 W/m2
06:06 13.6 °C 9.3 °C 1026.0 hPa Calm   1.1 km/h 75% 0.0 mm 0 W/m2
06:11 13.4 °C 9.1 °C 1025.6 hPa Calm   1.1 km/h 75% 0.0 mm 0 W/m2
06:16 13.3 °C 9.2 °C 1025.6 hPa Calm   1.1 km/h 76% 0.0 mm 0 W/m2
06:21 13.2 °C 9.1 °C 1026.0 hPa Calm   1.1 km/h 76% 0.0 mm 0 W/m2
06:26 13.1 °C 9.2 °C 1025.6 hPa Calm   2.6 km/h 77% 0.0 mm 0 W/m2
06:31 13.1 °C 9.2 °C 1025.6 hPa Calm   5.0 km/h 77% 0.0 mm 0 W/m2
06:36 13.0 °C 9.1 °C 1025.6 hPa Calm   5.0 km/h 77% 0.0 mm 0 W/m2
06:42 12.8 °C 9.1 °C 1025.6 hPa Calm   1.1 km/h 78% 0.0 mm 0 W/m2
06:47 12.8 °C 9.1 °C 1025.6 hPa Calm   1.1 km/h 78% 0.0 mm 0 W/m2
06:52 12.8 °C 9.3 °C 1025.6 hPa Calm   1.1 km/h 79% 0.0 mm 0 W/m2
06:57 12.7 °C 9.2 °C 1025.6 hPa Calm   1.1 km/h 79% 0.0 mm 0 W/m2
07:02 12.8 °C 9.3 °C 1025.6 hPa Calm   1.1 km/h 79% 0.0 mm 0 W/m2
07:07 12.8 °C 9.4 °C 1025.6 hPa Calm   2.6 km/h 80% 0.0 mm 0 W/m2
07:12 12.9 °C 9.6 °C 1025.6 hPa Calm   2.6 km/h 80% 0.0 mm 0 W/m2
07:17 12.8 °C 9.4 °C 1025.3 hPa Calm   1.1 km/h 80% 0.0 mm 0 W/m2
07:22 12.9 °C 9.6 °C 1025.3 hPa Calm   1.1 km/h 80% 0.0 mm 0 W/m2
07:27 13.0 °C 9.4 °C 1025.6 hPa Calm   1.1 km/h 79% 0.0 mm 0 W/m2
07:32 13.0 °C 9.4 °C 1025.3 hPa Calm     79% 0.0 mm 0 W/m2
07:37 13.0 °C 9.3 °C 1025.3 hPa Calm   1.1 km/h 78% 0.0 mm 0 W/m2
07:42 13.1 °C 9.3 °C 1024.9 hPa Calm   1.1 km/h 78% 0.0 mm 0 W/m2
07:49 13.1 °C 9.6 °C 1024.9 hPa Calm   1.1 km/h 79% 0.0 mm 0 W/m2
07:54 13.1 °C 9.6 °C 1025.3 hPa Calm   1.1 km/h 79% 0.0 mm 0 W/m2
07:59 13.1 °C 9.6 °C 1025.3 hPa Calm     79% 0.0 mm 0 W/m2
08:04 13.1 °C 9.6 °C 1024.9 hPa Calm     79% 0.0 mm 0 W/m2
08:09 13.1 °C 9.6 °C 1024.9 hPa Calm     79% 0.0 mm 0 W/m2
08:14 13.1 °C 9.6 °C 1024.9 hPa Calm     79% 0.0 mm 0 W/m2
08:19 13.1 °C 9.6 °C 1024.9 hPa Calm     79% 0.0 mm 0 W/m2
08:24 13.0 °C 9.6 °C 1024.9 hPa Calm   1.1 km/h 80% 0.0 mm 0 W/m2
08:29 13.0 °C 9.6 °C 1024.9 hPa Calm   1.1 km/h 80% 0.0 mm 0 W/m2
08:34 13.0 °C 9.6 °C 1024.9 hPa Calm   2.6 km/h 80% 0.0 mm 0 W/m2
08:39 12.9 °C 9.7 °C 1024.6 hPa Calm   3.5 km/h 81% 0.0 mm 0 W/m2
08:44 12.8 °C 9.6 °C 1024.6 hPa Calm   3.5 km/h 81% 0.0 mm 0 W/m2
08:49 12.8 °C 9.8 °C 1024.6 hPa Calm   1.1 km/h 82% 0.0 mm 0 W/m2
08:54 12.7 °C 9.7 °C 1024.9 hPa Calm   2.6 km/h 82% 0.0 mm 0 W/m2
08:59 12.7 °C 9.7 °C 1024.6 hPa Calm   2.6 km/h 82% 0.0 mm 0 W/m2
09:04 12.7 °C 9.7 °C 1024.6 hPa Calm   2.6 km/h 82% 0.0 mm 0 W/m2
09:09 12.7 °C 9.7 °C 1024.6 hPa Calm   2.6 km/h 82% 0.0 mm 0 W/m2
09:25 12.6 °C 9.6 °C 1024.6 hPa Calm   1.1 km/h 82% 0.0 mm 0 W/m2
09:30 12.5 °C 9.5 °C 1024.6 hPa Calm     82% 0.0 mm 0 W/m2
09:35 12.5 °C 9.7 °C 1024.3 hPa Calm     83% 0.0 mm 0 W/m2
09:40 12.5 °C 9.7 °C 1024.3 hPa Calm     83% 0.0 mm 0 W/m2
09:45 12.5 °C 9.7 °C 1024.3 hPa Calm     83% 0.0 mm 0 W/m2
09:50 12.5 °C 9.7 °C 1024.3 hPa Calm     83% 0.0 mm 0 W/m2
09:55 12.4 °C 9.6 °C 1024.3 hPa Calm     83% 0.0 mm 0 W/m2
10:00 12.2 °C 9.4 °C 1024.3 hPa Calm     83% 0.0 mm 0 W/m2
10:05 12.1 °C 9.3 °C 1024.3 hPa Calm     83% 0.0 mm 0 W/m2
10:10 12.1 °C 9.5 °C 1024.3 hPa Calm     84% 0.0 mm 0 W/m2
10:15 12.1 °C 9.7 °C 1024.3 hPa Calm     85% 0.0 mm 0 W/m2
10:20 12.0 °C 9.6 °C 1023.9 hPa Calm     85% 0.0 mm 0 W/m2
10:25 12.0 °C 9.6 °C 1023.9 hPa Calm     85% 0.0 mm 0 W/m2
10:30 11.9 °C 9.8 °C 1023.9 hPa Calm     87% 0.0 mm 0 W/m2
10:35 11.8 °C 9.7 °C 1023.9 hPa Calm     87% 0.0 mm 0 W/m2
10:40 11.8 °C 9.7 °C 1023.9 hPa Calm     87% 0.0 mm 0 W/m2
10:46 11.7 °C 9.8 °C 1023.9 hPa Calm     88% 0.0 mm 0 W/m2
10:51 11.7 °C 9.8 °C 1023.9 hPa Calm     88% 0.0 mm 0 W/m2
10:56 11.6 °C 9.8 °C 1023.9 hPa Calm     89% 0.0 mm 0 W/m2
11:01 11.6 °C 9.8 °C 1023.9 hPa Calm     89% 0.0 mm 0 W/m2
11:06 11.4 °C 9.7 °C 1023.9 hPa Calm     89% 0.0 mm 0 W/m2
11:11 11.4 °C 9.7 °C 1023.9 hPa Calm     89% 0.0 mm 0 W/m2
11:16 11.4 °C 9.7 °C 1023.9 hPa Calm   1.1 km/h 89% 0.0 mm 0 W/m2
11:21 11.5 °C 9.8 °C 1024.3 hPa Calm   1.1 km/h 89% 0.0 mm 0 W/m2
11:26 11.5 °C 9.9 °C 1023.9 hPa Calm   2.6 km/h 90% 0.0 mm 0 W/m2
11:31 11.6 °C 9.8 °C 1023.9 hPa Calm   2.6 km/h 89% 0.0 mm 0 W/m2
11:36 11.6 °C 9.8 °C 1023.9 hPa Calm   2.6 km/h 89% 0.0 mm 0 W/m2
11:41 11.5 °C 9.8 °C 1023.9 hPa Calm   2.6 km/h 89% 0.0 mm 0 W/m2
11:46 11.5 °C 9.8 °C 1023.9 hPa Calm   1.1 km/h 89% 0.0 mm 0 W/m2
11:51 11.5 °C 9.8 °C 1023.9 hPa Calm   2.6 km/h 89% 0.0 mm 1 W/m2
11:56 11.4 °C 9.7 °C 1023.9 hPa Calm   2.6 km/h 89% 0.0 mm 4 W/m2
12:01 11.4 °C 9.8 °C 1023.9 hPa Calm   2.6 km/h 90% 0.0 mm 7 W/m2
12:06 11.3 °C 9.7 °C 1024.3 hPa Calm   2.6 km/h 90% 0.0 mm 13 W/m2
12:11 11.3 °C 9.7 °C 1024.3 hPa North 1.1 km/h 2.6 km/h 90% 0.0 mm 30 W/m2
12:16 11.7 °C 10.1 °C 1024.3 hPa Calm   2.6 km/h 90% 0.0 mm 30 W/m2
12:21 11.9 °C 10.3 °C 1024.3 hPa Calm   2.6 km/h 90% 0.0 mm 37 W/m2
12:26 12.2 °C 10.3 °C 1024.3 hPa Calm   1.1 km/h 88% 0.0 mm 53 W/m2
12:31 12.8 °C 11.1 °C 1024.3 hPa Calm   1.1 km/h 89% 0.0 mm 58 W/m2
12:36 13.5 °C 11.4 °C 1024.3 hPa Calm   1.1 km/h 87% 0.0 mm 66 W/m2
12:41 14.0 °C 11.3 °C 1024.3 hPa Calm   1.1 km/h 84% 0.0 mm 73 W/m2
12:46 14.2 °C 11.0 °C 1024.3 hPa Calm   2.6 km/h 81% 0.0 mm 81 W/m2
12:51 14.3 °C 10.7 °C 1024.3 hPa Calm   2.6 km/h 79% 0.0 mm 92 W/m2
12:56 14.8 °C 11.0 °C 1023.9 hPa Calm   2.6 km/h 78% 0.0 mm 116 W/m2
13:01 15.2 °C 11.2 °C 1024.3 hPa North 1.1 km/h 3.5 km/h 77% 0.0 mm 140 W/m2
13:06 15.5 °C 11.1 °C 1024.3 hPa NNW 1.1 km/h 3.5 km/h 75% 0.0 mm 148 W/m2
13:11 15.9 °C 11.1 °C 1024.3 hPa NNW 2.6 km/h 5.0 km/h 73% 0.0 mm 148 W/m2
13:16 15.8 °C 11.0 °C 1024.3 hPa NNW 5.0 km/h 7.2 km/h 73% 0.0 mm 149 W/m2
13:21 15.4 °C 10.6 °C 1024.3 hPa NNW 2.6 km/h 7.2 km/h 73% 0.0 mm 145 W/m2
13:26 15.0 °C 10.4 °C 1024.3 hPa NW 3.5 km/h 9.7 km/h 74% 0.0 mm 151 W/m2
13:31 14.9 °C 10.7 °C 1024.3 hPa NW 7.2 km/h 11.1 km/h 76% 0.0 mm 160 W/m2
13:36 14.7 °C 10.7 °C 1024.3 hPa NW 5.0 km/h 13.4 km/h 77% 0.0 mm 169 W/m2
13:41 14.5 °C 10.7 °C 1024.3 hPa NW 3.5 km/h 13.4 km/h 78% 0.0 mm 180 W/m2
13:46 14.8 °C 11.0 °C 1024.3 hPa NW 3.5 km/h 12.2 km/h 78% 0.0 mm 189 W/m2
13:51 15.3 °C 11.1 °C 1023.9 hPa NNW 6.1 km/h 11.1 km/h 76% 0.0 mm 203 W/m2
13:56 15.3 °C 10.9 °C 1024.3 hPa NNW 5.0 km/h 14.8 km/h 75% 0.0 mm 212 W/m2
14:01 15.7 °C 11.1 °C 1024.3 hPa NNW 6.1 km/h 14.8 km/h 74% 0.0 mm 226 W/m2
14:06 15.8 °C 11.0 °C 1024.3 hPa North 11.1 km/h 15.8 km/h 73% 0.0 mm 235 W/m2
14:11 15.8 °C 11.0 °C 1024.3 hPa NNW 3.5 km/h 15.8 km/h 73% 0.0 mm 247 W/m2
14:16 16.3 °C 11.3 °C 1024.3 hPa North 5.0 km/h 15.8 km/h 72% 0.0 mm 261 W/m2
14:21 16.3 °C 11.1 °C 1024.3 hPa North 8.7 km/h 15.8 km/h 71% 0.0 mm 275 W/m2
14:26 16.4 °C 10.9 °C 1024.3 hPa NNW 1.1 km/h 15.8 km/h 70% 0.0 mm 287 W/m2
14:31 16.9 °C 11.2 °C 1024.3 hPa NNW 3.5 km/h 12.2 km/h 69% 0.0 mm 300 W/m2
14:36 17.4 °C 11.0 °C 1024.3 hPa North 7.2 km/h 11.1 km/h 66% 0.0 mm 316 W/m2
14:41 17.2 °C 10.6 °C 1024.3 hPa North 5.0 km/h 11.1 km/h 65% 0.0 mm 331 W/m2
14:46 17.4 °C 10.8 °C 1024.3 hPa North 3.5 km/h 11.1 km/h 65% 0.0 mm 345 W/m2
14:51 17.6 °C 10.5 °C 1024.3 hPa North 5.0 km/h 13.4 km/h 63% 0.0 mm 357 W/m2
14:56 18.0 °C 11.3 °C 1024.3 hPa North 7.2 km/h 13.4 km/h 65% 0.0 mm 375 W/m2
15:01 17.9 °C 10.5 °C 1024.3 hPa North 3.5 km/h 13.4 km/h 62% 0.0 mm 388 W/m2
15:06 18.4 °C 11.2 °C 1024.3 hPa North 2.6 km/h 13.4 km/h 63% 0.0 mm 404 W/m2
15:11 18.5 °C 10.6 °C 1024.3 hPa NNW 6.1 km/h 9.7 km/h 60% 0.0 mm 418 W/m2
15:16 18.6 °C 10.9 °C 1024.3 hPa NNW 2.6 km/h 9.7 km/h 61% 0.0 mm 432 W/m2
15:21 18.8 °C 11.6 °C 1024.3 hPa NNW 3.5 km/h 8.7 km/h 63% 0.0 mm 450 W/m2
15:26 19.0 °C 11.6 °C 1024.3 hPa NNW 2.6 km/h 7.2 km/h 62% 0.0 mm 467 W/m2
15:31 19.5 °C 11.8 °C 1024.3 hPa North 2.6 km/h 7.2 km/h 61% 0.0 mm 484 W/m2
15:36 19.6 °C 11.1 °C 1024.3 hPa North 5.0 km/h 11.1 km/h 58% 0.0 mm 506 W/m2
15:41 19.5 °C 10.5 °C 1024.3 hPa NNW 2.6 km/h 11.1 km/h 56% 0.0 mm 521 W/m2
15:46 19.7 °C 10.4 °C 1024.3 hPa North 7.2 km/h 9.7 km/h 55% 0.0 mm 533 W/m2
15:51 19.1 °C 10.4 °C 1024.3 hPa North 3.5 km/h 17.2 km/h 57% 0.0 mm 368 W/m2
15:56 19.6 °C 10.6 °C 1023.9 hPa Calm   17.2 km/h 56% 0.0 mm 639 W/m2
16:01 19.9 °C 10.9 °C 1023.9 hPa North 3.5 km/h 11.1 km/h 56% 0.0 mm 405 W/m2
16:06 19.3 °C 10.3 °C 1023.9 hPa North 6.1 km/h 11.1 km/h 56% 0.0 mm 683 W/m2
16:11 19.7 °C 11.2 °C 1023.9 hPa North 6.1 km/h 11.1 km/h 58% 0.0 mm 703 W/m2
16:16 19.9 °C 11.2 °C 1023.9 hPa NNW 6.1 km/h 12.2 km/h 57% 0.0 mm 713 W/m2
16:21 20.1 °C 11.3 °C 1023.6 hPa Calm   12.2 km/h 57% 0.0 mm 640 W/m2
16:26 21.1 °C 11.2 °C 1023.6 hPa NE 5.0 km/h 9.7 km/h 53% 0.0 mm 835 W/m2
16:31 20.5 °C 12.2 °C 1023.6 hPa ESE 6.1 km/h 14.8 km/h 59% 0.0 mm 239 W/m2
16:37 19.1 °C 12.4 °C 1023.9 hPa SE 3.5 km/h 14.8 km/h 65% 0.0 mm 295 W/m2
16:42 19.2 °C 12.9 °C 1023.6 hPa SE 6.1 km/h 11.1 km/h 67% 0.0 mm 486 W/m2
16:47 19.5 °C 13.0 °C 1023.6 hPa ESE 5.0 km/h 12.2 km/h 66% 0.0 mm 346 W/m2
16:52 19.1 °C 12.4 °C 1023.6 hPa SE 9.7 km/h 15.8 km/h 65% 0.0 mm 846 W/m2
16:57 18.6 °C 11.9 °C 1023.6 hPa SSE 1.1 km/h 15.8 km/h 65% 0.0 mm 302 W/m2
17:03 19.4 °C 12.4 °C 1023.6 hPa SSE 7.2 km/h 14.8 km/h 64% 0.0 mm 958 W/m2
17:08 20.0 °C 11.8 °C 1023.6 hPa SE 6.1 km/h 11.1 km/h 59% 0.0 mm 845 W/m2
17:13 19.4 °C 12.2 °C 1023.6 hPa SE 5.0 km/h 11.1 km/h 63% 0.0 mm 534 W/m2
17:18 19.3 °C 12.6 °C 1023.2 hPa SSE 6.1 km/h 17.2 km/h 65% 0.0 mm 850 W/m2
17:23 20.2 °C 12.9 °C 1023.2 hPa SSE 6.1 km/h 17.2 km/h 63% 0.0 mm 609 W/m2
17:28 20.0 °C 12.3 °C 1023.2 hPa SE 2.6 km/h 12.2 km/h 61% 0.0 mm 392 W/m2
17:33 19.4 °C 12.2 °C 1023.2 hPa SE 5.0 km/h 13.4 km/h 63% 0.0 mm 377 W/m2
17:38 19.1 °C 12.2 °C 1023.2 hPa SSE 7.2 km/h 15.8 km/h 64% 0.0 mm 406 W/m2
17:43 18.6 °C 11.7 °C 1023.2 hPa SSE 3.5 km/h 15.8 km/h 64% 0.0 mm 397 W/m2
17:48 18.8 °C 12.1 °C 1022.9 hPa SE 3.5 km/h 15.8 km/h 65% 0.0 mm 520 W/m2
17:53 19.5 °C 12.5 °C 1022.9 hPa SE 5.0 km/h 15.8 km/h 64% 0.0 mm 943 W/m2
17:58 20.6 °C 12.3 °C 1022.9 hPa ESE 3.5 km/h 12.2 km/h 59% 0.0 mm 934 W/m2
18:03 20.7 °C 12.2 °C 1022.6 hPa SE 3.5 km/h 14.8 km/h 58% 0.0 mm 861 W/m2
18:08 20.6 °C 11.8 °C 1022.6 hPa SE 6.1 km/h 14.8 km/h 57% 0.0 mm 860 W/m2
18:13 20.2 °C 11.4 °C 1022.2 hPa SE 5.0 km/h 14.8 km/h 57% 0.0 mm 839 W/m2
18:18 20.2 °C 11.4 °C 1022.6 hPa SE 7.2 km/h 15.8 km/h 57% 0.0 mm 835 W/m2
18:23 20.5 °C 12.5 °C 1022.2 hPa SSE 7.2 km/h 15.8 km/h 60% 0.0 mm 828 W/m2
18:28 20.5 °C 11.4 °C 1022.2 hPa SE 7.2 km/h 17.2 km/h 56% 0.0 mm 816 W/m2
18:33 20.1 °C 11.1 °C 1022.2 hPa ESE 7.2 km/h 17.2 km/h 56% 0.0 mm 810 W/m2
18:38 20.2 °C 11.9 °C 1022.2 hPa ESE 5.0 km/h 17.2 km/h 59% 0.0 mm 811 W/m2
18:43 20.2 °C 11.4 °C 1021.9 hPa ESE 8.7 km/h 17.2 km/h 57% 0.0 mm 809 W/m2
18:48 20.6 °C 12.1 °C 1021.9 hPa ESE 8.7 km/h 18.3 km/h 58% 0.0 mm 810 W/m2
18:53 20.6 °C 11.8 °C 1022.2 hPa SSE 8.7 km/h 18.3 km/h 57% 0.0 mm 806 W/m2
18:59 20.6 °C 12.3 °C 1021.9 hPa SE 7.2 km/h 15.8 km/h 59% 0.0 mm 802 W/m2
19:04 20.8 °C 13.0 °C 1021.9 hPa SE 7.2 km/h 18.3 km/h 61% 0.0 mm 800 W/m2
19:09 21.0 °C 12.4 °C 1021.9 hPa ESE 7.2 km/h 18.3 km/h 58% 0.0 mm 796 W/m2
19:14 20.9 °C 12.1 °C 1021.6 hPa SE 3.5 km/h 17.2 km/h 57% 0.0 mm 791 W/m2
19:19 21.0 °C 12.2 °C 1021.6 hPa SE 5.0 km/h 17.2 km/h 57% 0.0 mm 787 W/m2
19:24 21.2 °C 12.1 °C 1021.6 hPa ESE 6.1 km/h 15.8 km/h 56% 0.0 mm 782 W/m2
19:29 21.3 °C 12.4 °C 1021.6 hPa ESE 3.5 km/h 15.8 km/h 57% 0.0 mm 779 W/m2
19:34 21.5 °C 12.9 °C 1021.6 hPa SE 1.1 km/h 14.8 km/h 58% 0.0 mm 774 W/m2
19:39 21.4 °C 13.1 °C 1021.6 hPa SE 5.0 km/h 24.5 km/h 59% 0.0 mm 768 W/m2
19:44 21.1 °C 12.6 °C 1021.6 hPa SE 2.6 km/h 24.5 km/h 58% 0.0 mm 760 W/m2
19:54 21.0 °C 12.7 °C 1021.2 hPa SE 8.7 km/h 15.8 km/h 59% 0.0 mm 748 W/m2
19:59 21.1 °C 12.3 °C 1021.2 hPa SE 7.2 km/h 14.8 km/h 57% 0.0 mm 743 W/m2
20:04 21.3 °C 13.0 °C 1021.2 hPa SE 5.0 km/h 14.8 km/h 59% 0.0 mm 737 W/m2
20:09 21.6 °C 13.0 °C 1020.9 hPa SE 5.0 km/h 14.8 km/h 58% 0.0 mm 730 W/m2
20:14 21.7 °C 13.1 °C 1020.9 hPa SE 8.7 km/h 14.8 km/h 58% 0.0 mm 726 W/m2
20:19 21.6 °C 13.3 °C 1020.9 hPa SE 6.1 km/h 17.2 km/h 59% 0.0 mm 717 W/m2
20:24 21.9 °C 12.7 °C 1020.9 hPa ESE 8.7 km/h 17.2 km/h 56% 0.0 mm 699 W/m2
20:29 21.7 °C 12.6 °C 1020.9 hPa ESE 6.1 km/h 14.8 km/h 56% 0.0 mm 696 W/m2
20:34 21.6 °C 12.4 °C 1020.5 hPa ESE 6.1 km/h 17.2 km/h 56% 0.0 mm 686 W/m2
20:39 22.0 °C 12.8 °C 1020.5 hPa SE 6.1 km/h 17.2 km/h 56% 0.0 mm 675 W/m2
20:44 22.2 °C 12.4 °C 1020.5 hPa SE 6.1 km/h 18.3 km/h 54% 0.0 mm 667 W/m2
20:49 22.3 °C 12.6 °C 1020.2 hPa SE 12.2 km/h 18.3 km/h 54% 0.0 mm 663 W/m2
20:54 22.0 °C 11.7 °C 1020.2 hPa ESE 9.7 km/h 17.2 km/h 52% 0.0 mm 590 W/m2
20:59 22.0 °C 11.7 °C 1020.2 hPa ESE 2.6 km/h 17.2 km/h 52% 0.0 mm 621 W/m2
21:04 22.2 °C 11.6 °C 1019.9 hPa ESE 9.7 km/h 17.2 km/h 51% 0.0 mm 498 W/m2
21:09 22.6 °C 12.8 °C 1020.2 hPa ESE 3.5 km/h 18.3 km/h 54% 0.0 mm 561 W/m2
21:14 23.0 °C 13.2 °C 1019.9 hPa SSE 7.2 km/h 18.3 km/h 54% 0.0 mm 551 W/m2
21:19 23.0 °C 12.6 °C 1019.5 hPa SSE 6.1 km/h 17.2 km/h 52% 0.0 mm 637 W/m2
21:25 23.0 °C 12.6 °C 1019.9 hPa SE 7.2 km/h 19.5 km/h 52% 0.0 mm 198 W/m2
21:30 22.0 °C 12.0 °C 1019.9 hPa SE 1.1 km/h 19.5 km/h 53% 0.0 mm 179 W/m2
21:36 21.0 °C 11.6 °C 1019.5 hPa SE 5.0 km/h 15.8 km/h 55% 0.0 mm 184 W/m2
21:41 20.6 °C 11.5 °C 1019.5 hPa ESE 9.7 km/h 15.8 km/h 56% 0.0 mm 240 W/m2
21:46 20.3 °C 11.0 °C 1019.5 hPa East 8.7 km/h 23.3 km/h 55% 0.0 mm 341 W/m2
21:51 20.6 °C 11.0 °C 1019.5 hPa ENE 6.1 km/h 23.3 km/h 54% 0.0 mm 201 W/m2
21:56 20.8 °C 10.9 °C 1019.5 hPa ENE 7.2 km/h 15.8 km/h 53% 0.0 mm 142 W/m2
22:01 20.5 °C 10.9 °C 1019.5 hPa ENE 5.0 km/h 15.8 km/h 54% 0.0 mm 165 W/m2
22:06 20.5 °C 10.6 °C 1019.5 hPa East 8.7 km/h 15.8 km/h 53% 0.0 mm 163 W/m2
22:16 20.2 °C 10.6 °C 1019.5 hPa East 9.7 km/h 15.8 km/h 54% 0.0 mm 133 W/m2
22:21 20.1 °C 10.5 °C 1019.5 hPa East 3.5 km/h 15.8 km/h 54% 0.0 mm 117 W/m2
22:25 20.2 °C 10.6 °C 1019.5 hPa East 8.7 km/h 13.4 km/h 54% 0.0 mm 114 W/m2
22:30 20.1 °C 10.5 °C 1019.2 hPa East 7.2 km/h 12.2 km/h 54% 0.0 mm 99 W/m2
22:33 19.9 °C 10.6 °C 1019.2 hPa East 6.1 km/h 13.4 km/h 55% 0.0 mm 88 W/m2
22:38 19.8 °C 10.8 °C 1019.2 hPa ENE 6.1 km/h 13.4 km/h 56% 0.0 mm 53 W/m2
22:43 19.8 °C 11.3 °C 1019.2 hPa ENE 3.5 km/h 13.4 km/h 58% 0.0 mm 36 W/m2
22:48 19.6 °C 11.1 °C 1019.5 hPa Calm   11.1 km/h 58% 0.0 mm 31 W/m2
22:53 19.3 °C 11.3 °C 1019.5 hPa NNW 5.0 km/h 9.7 km/h 60% 0.0 mm 33 W/m2
22:58 18.0 °C 12.0 °C 1019.5 hPa WNW 5.0 km/h 9.7 km/h 68% 0.0 mm 28 W/m2
23:03 16.9 °C 12.2 °C 1019.9 hPa NW 7.2 km/h 12.2 km/h 74% 0.0 mm 23 W/m2
23:08 16.3 °C 12.4 °C 1019.9 hPa NW 9.7 km/h 14.8 km/h 78% 0.3 mm 23 W/m2
23:13 15.4 °C 12.0 °C 1019.9 hPa NNW 12.2 km/h 24.5 km/h 80% 1.5 mm 23 W/m2
23:18 14.3 °C 12.0 °C 1020.2 hPa NNW 6.1 km/h 24.5 km/h 86% 3.0 mm 22 W/m2
23:23 13.9 °C 11.9 °C 1019.9 hPa NNW 1.1 km/h 18.3 km/h 88% 3.6 mm 25 W/m2
23:28 13.7 °C 12.3 °C 1019.9 hPa North 1.1 km/h 11.1 km/h 91% 3.8 mm 28 W/m2
23:33 13.9 °C 12.8 °C 1019.5 hPa ESE 3.5 km/h 6.1 km/h 93% 4.3 mm 29 W/m2
23:38 14.1 °C 12.7 °C 1019.5 hPa Calm   6.1 km/h 91% 4.3 mm 33 W/m2
23:43 14.5 °C 13.1 °C 1019.5 hPa East 5.0 km/h 9.7 km/h 91% 4.3 mm 41 W/m2
23:48 14.5 °C 13.1 °C 1019.5 hPa East 7.2 km/h 13.4 km/h 91% 4.3 mm 44 W/m2
23:53 14.7 °C 12.7 °C 1019.5 hPa East 7.2 km/h 14.8 km/h 88% 4.3 mm 47 W/m2
23:58 14.9 °C 12.4 °C 1019.5 hPa East 3.5 km/h 14.8 km/h 85% 4.3 mm 47 W/m2
Northern Hawkes Bay. New Zealand Historic Data
Compliments of Weather Underground - 2 mb